Time;durP1;ratioP1;P1;durP2;ratioP2;P2;SDS_P1;SDS_P2;PMS_P1;PMS_P2;Temp;Humidity;BMP_temperature;BMP_pressure;BME280_temperature;BME280_humidity;BME280_pressure;Samples;Min_cycle;Max_cycle;Signal;HPM_P1;HPM_P2
2023/06/27 00:00:23;;;;;;;5.72;1.90;;;17.00;99.90;;;;;;4860546;29;20065;-67
2023/06/27 00:02:53;;;;;;;7.15;2.00;;;16.90;99.90;;;;;;4877204;29;20045;-67
2023/06/27 00:05:19;;;;;;;3.75;1.80;;;17.00;99.90;;;;;;4860482;29;20049;-67
2023/06/27 00:07:44;;;;;;;6.70;2.10;;;17.00;99.90;;;;;;4877209;29;20385;-67
2023/06/27 00:10:11;;;;;;;4.85;1.98;;;17.00;99.90;;;;;;4860867;29;20129;-67
2023/06/27 00:12:37;;;;;;;5.70;2.17;;;17.00;99.90;;;;;;4860259;29;20057;-68
2023/06/27 00:15:05;;;;;;;6.13;1.63;;;16.90;99.90;;;;;;4877105;29;20064;-67
2023/06/27 00:17:34;;;;;;;3.67;1.70;;;16.90;99.90;;;;;;4877715;29;20123;-77
2023/06/27 00:20:04;;;;;;;4.97;1.60;;;16.90;99.90;;;;;;4845653;29;20457;-76
2023/06/27 00:22:30;;;;;;;5.80;1.98;;;16.80;99.90;;;;;;4861120;29;20881;-77
2023/06/27 00:24:56;;;;;;;4.85;2.53;;;16.80;99.90;;;;;;4860795;29;20061;-77
2023/06/27 00:27:22;;;;;;;5.60;2.42;;;16.80;99.90;;;;;;4877307;29;20060;-77
2023/06/27 00:29:48;;;;;;;4.53;1.83;;;16.80;99.90;;;;;;4845577;29;20044;-77
2023/06/27 00:32:13;;;;;;;2.80;1.73;;;16.80;99.90;;;;;;4877563;29;20083;-77
2023/06/27 00:34:39;;;;;;;4.15;2.10;;;16.60;99.90;;;;;;4845242;29;20056;-77
2023/06/27 00:37:05;;;;;;;4.72;2.00;;;16.60;99.90;;;;;;4861013;29;20061;-76
2023/06/27 00:39:32;;;;;;;10.38;2.70;;;16.70;99.90;;;;;;4864218;29;20049;-75
2023/06/27 00:41:58;;;;;;;6.70;2.03;;;16.60;99.90;;;;;;4880732;29;20044;-76
2023/06/27 00:44:24;;;;;;;5.88;2.20;;;16.60;99.90;;;;;;4864094;29;20065;-75
2023/06/27 00:46:51;;;;;;;4.57;2.05;;;16.60;99.90;;;;;;4863984;29;20065;-76
2023/06/27 00:49:19;;;;;;;5.38;2.35;;;16.50;99.90;;;;;;4880787;29;20504;-75
2023/06/27 00:51:47;;;;;;;6.70;2.17;;;16.50;99.90;;;;;;4880927;29;20052;-76
2023/06/27 00:54:15;;;;;;;3.53;1.92;;;16.50;99.90;;;;;;4880930;29;20461;-76
2023/06/27 00:56:41;;;;;;;4.72;1.90;;;16.50;99.90;;;;;;4864518;29;20056;-77
2023/06/27 00:59:08;;;;;;;6.22;2.47;;;16.40;99.90;;;;;;4860268;29;20136;-78
2023/06/27 01:01:33;;;;;;;7.07;2.15;;;16.40;99.90;;;;;;4870866;29;20442;-78
2023/06/27 01:03:59;;;;;;;8.93;2.42;;;16.30;99.90;;;;;;4879874;29;20071;-78
2023/06/27 01:06:36;;;;;;;6.70;2.10;;;16.30;99.90;;;;;;4864337;29;20135;-78
2023/06/27 01:09:19;;;;;;;4.93;2.40;;;16.30;99.90;;;;;;4880678;29;20500;-78
2023/06/27 01:11:51;;;;;;;5.63;2.03;;;16.30;99.90;;;;;;4863849;29;20359;-78
2023/06/27 01:14:19;;;;;;;8.25;3.20;;;16.20;99.90;;;;;;4864822;29;20057;-77
2023/06/27 01:16:46;;;;;;;4.78;2.00;;;16.20;99.90;;;;;;4879770;29;20045;-79
2023/06/27 01:19:16;;;;;;;6.10;2.10;;;16.20;99.90;;;;;;4851613;29;20453;-78
2023/06/27 01:21:45;;;;;;;3.40;2.17;;;16.20;99.90;;;;;;4829827;29;20092;-78
2023/06/27 01:24:10;;;;;;;3.88;2.05;;;16.20;99.90;;;;;;4862214;29;20129;-78
2023/06/27 01:26:36;;;;;;;6.05;2.70;;;16.10;99.90;;;;;;4845315;29;20577;-78
2023/06/27 01:29:02;;;;;;;8.38;2.72;;;16.20;99.90;;;;;;4845517;29;20057;-78
2023/06/27 01:31:59;;;;;;;6.10;2.13;;;16.10;99.90;;;;;;4861915;29;20049;-78
2023/06/27 01:34:33;;;;;;;6.18;2.70;;;16.20;99.90;;;;;;4841941;29;20398;-78
2023/06/27 01:37:02;;;;;;;5.20;2.20;;;16.10;99.90;;;;;;4845088;29;20141;-77
2023/06/27 01:39:57;;;;;;;6.22;2.20;;;16.10;99.90;;;;;;4861769;29;20405;-77
2023/06/27 01:42:30;;;;;;;6.80;2.83;;;16.10;99.90;;;;;;4844733;29;20085;-77
2023/06/27 01:44:57;;;;;;;5.60;2.45;;;16.20;99.90;;;;;;4844989;29;20059;-77
2023/06/27 01:47:23;;;;;;;6.40;2.90;;;16.20;99.90;;;;;;4844563;29;20053;-78
2023/06/27 01:49:49;;;;;;;6.22;2.50;;;16.20;99.90;;;;;;4843503;29;20069;-77
2023/06/27 01:52:15;;;;;;;5.88;2.90;;;16.10;99.90;;;;;;4860420;29;20160;-68
2023/06/27 01:54:42;;;;;;;6.55;2.47;;;16.20;99.90;;;;;;4860702;29;20796;-68
2023/06/27 01:57:08;;;;;;;7.50;2.55;;;16.20;99.90;;;;;;4859383;29;20064;-68
2023/06/27 01:59:34;;;;;;;5.47;2.50;;;16.20;99.90;;;;;;4860511;29;20056;-67
2023/06/27 02:02:00;;;;;;;5.30;2.97;;;16.20;99.90;;;;;;4860588;29;20054;-67
2023/06/27 02:04:26;;;;;;;4.80;2.85;;;16.30;99.90;;;;;;4860647;29;20624;-68
2023/06/27 02:06:51;;;;;;;5.93;2.72;;;16.20;99.90;;;;;;4860718;29;20053;-67
2023/06/27 02:09:17;;;;;;;8.95;3.40;;;16.20;99.90;;;;;;4858529;29;20093;-68
2023/06/27 02:11:43;;;;;;;7.05;3.10;;;16.20;99.90;;;;;;4860592;29;20601;-77
2023/06/27 02:14:08;;;;;;;5.13;2.50;;;16.20;99.90;;;;;;4844799;29;20124;-78
2023/06/27 02:16:34;;;;;;;6.57;3.00;;;16.10;99.90;;;;;;4844412;29;20063;-77
2023/06/27 02:19:00;;;;;;;5.97;3.00;;;16.00;99.90;;;;;;4861459;29;20425;-78
2023/06/27 02:21:25;;;;;;;7.63;2.70;;;16.10;99.90;;;;;;4859806;29;20057;-77
2023/06/27 02:23:51;;;;;;;9.05;3.08;;;16.00;99.90;;;;;;4844167;29;20068;-78
2023/06/27 02:26:18;;;;;;;8.05;2.92;;;16.10;99.90;;;;;;4844190;29;20425;-78
2023/06/27 02:28:43;;;;;;;10.10;3.45;;;16.00;99.90;;;;;;4859649;29;20061;-78
2023/06/27 02:31:09;;;;;;;6.28;3.13;;;16.00;99.90;;;;;;4844468;29;20096;-77
2023/06/27 02:33:35;;;;;;;7.55;3.33;;;16.00;99.90;;;;;;4844440;29;20485;-78
2023/06/27 02:36:00;;;;;;;6.72;3.63;;;15.90;99.90;;;;;;4844130;29;20045;-77
2023/06/27 02:38:26;;;;;;;9.25;4.05;;;16.00;99.90;;;;;;4859229;29;20061;-77
2023/06/27 02:40:52;;;;;;;7.45;3.55;;;16.00;99.90;;;;;;4845076;29;20065;-77
2023/06/27 02:43:18;;;;;;;8.13;3.67;;;16.00;99.90;;;;;;4860954;29;20509;-77
2023/06/27 02:45:44;;;;;;;7.53;3.90;;;16.00;99.90;;;;;;4860654;29;20256;-78
2023/06/27 02:48:09;;;;;;;7.20;3.90;;;16.00;99.90;;;;;;4843398;29;20065;-76
2023/06/27 02:50:35;;;;;;;10.55;3.88;;;16.00;99.90;;;;;;4860761;29;20089;-78
2023/06/27 02:53:01;;;;;;;6.43;3.88;;;15.90;99.90;;;;;;4843180;29;20049;-68
2023/06/27 02:55:26;;;;;;;8.75;4.15;;;15.90;99.90;;;;;;4859458;29;20053;-67
2023/06/27 02:57:52;;;;;;;6.90;3.58;;;16.00;99.90;;;;;;4859430;29;20097;-67
2023/06/27 03:00:19;;;;;;;12.50;4.57;;;16.00;99.90;;;;;;4859150;29;20088;-67
2023/06/27 03:02:45;;;;;;;9.02;3.60;;;15.90;99.90;;;;;;4859591;29;20065;-67
2023/06/27 03:05:11;;;;;;;7.88;4.70;;;15.90;99.90;;;;;;4859923;29;20197;-67
2023/06/27 03:07:36;;;;;;;5.78;4.13;;;16.00;99.90;;;;;;4858942;29;20432;-67
2023/06/27 03:10:02;;;;;;;11.55;4.50;;;16.00;99.90;;;;;;4858838;29;20050;-67
2023/06/27 03:12:28;;;;;;;8.88;4.78;;;16.00;99.90;;;;;;4842599;29;20061;-67
2023/06/27 03:14:54;;;;;;;13.32;5.38;;;15.90;99.90;;;;;;4859633;29;20069;-67
2023/06/27 03:17:19;;;;;;;10.27;4.93;;;15.90;99.90;;;;;;4859121;29;20133;-68
2023/06/27 03:19:45;;;;;;;7.50;4.28;;;15.90;99.90;;;;;;4842781;29;20082;-66
2023/06/27 03:22:11;;;;;;;9.70;4.88;;;15.90;99.90;;;;;;4858841;29;20117;-67
2023/06/27 03:24:36;;;;;;;7.57;4.55;;;15.90;99.90;;;;;;4858776;29;20049;-66
2023/06/27 03:27:02;;;;;;;7.88;4.63;;;15.90;99.90;;;;;;4859403;29;20045;-67
2023/06/27 03:29:28;;;;;;;7.72;4.90;;;16.00;99.90;;;;;;4859509;29;20098;-71
2023/06/27 03:31:57;;;;;;;12.18;5.18;;;15.90;99.90;;;;;;4842529;29;20475;-71
2023/06/27 03:34:22;;;;;;;11.20;5.25;;;15.90;99.90;;;;;;4859428;29;20172;-72
2023/06/27 03:36:48;;;;;;;11.00;4.78;;;15.90;99.90;;;;;;4859049;29;20049;-72
2023/06/27 03:39:14;;;;;;;9.75;4.53;;;15.90;99.90;;;;;;4859477;29;20098;-72
2023/06/27 03:41:39;;;;;;;6.38;4.07;;;15.90;99.90;;;;;;4859135;29;20061;-73
2023/06/27 03:44:05;;;;;;;10.00;5.53;;;15.90;99.90;;;;;;4858945;29;20058;-71
2023/06/27 03:46:32;;;;;;;7.47;4.82;;;16.00;99.90;;;;;;4858859;29;20046;-71
2023/06/27 03:48:58;;;;;;;8.52;5.30;;;16.00;99.90;;;;;;4858712;29;20202;-67
2023/06/27 03:51:25;;;;;;;8.23;5.20;;;16.00;99.90;;;;;;4858791;29;20454;-67
2023/06/27 03:53:51;;;;;;;11.90;4.97;;;16.00;99.90;;;;;;4858665;29;20050;-68
2023/06/27 03:56:17;;;;;;;6.45;4.90;;;16.00;99.90;;;;;;4859077;29;20061;-68
2023/06/27 03:58:42;;;;;;;11.30;5.65;;;16.10;99.90;;;;;;4858918;29;20588;-67
2023/06/27 04:01:10;;;;;;;10.27;5.20;;;16.10;99.90;;;;;;4858670;29;20049;-67
2023/06/27 04:03:35;;;;;;;9.38;5.75;;;16.20;99.90;;;;;;4858697;29;20474;-68
2023/06/27 04:06:01;;;;;;;8.95;5.45;;;16.30;99.90;;;;;;4841979;29;20148;-67
2023/06/27 04:08:26;;;;;;;9.48;5.25;;;16.30;99.90;;;;;;4858689;29;20057;-67
2023/06/27 04:10:52;;;;;;;12.43;5.18;;;16.30;99.90;;;;;;4858825;29;20045;-67
2023/06/27 04:13:18;;;;;;;8.98;5.00;;;16.40;99.90;;;;;;4857953;29;20068;-67
2023/06/27 04:15:43;;;;;;;11.50;4.95;;;16.40;99.90;;;;;;4858717;29;20053;-67
2023/06/27 04:18:09;;;;;;;10.82;5.20;;;16.50;99.90;;;;;;4858244;29;20145;-67
2023/06/27 04:20:35;;;;;;;10.27;5.70;;;16.60;99.90;;;;;;4858599;29;20053;-67
2023/06/27 04:23:01;;;;;;;12.60;5.07;;;16.60;99.90;;;;;;4858365;29;20424;-68
2023/06/27 04:25:32;;;;;;;9.93;5.68;;;16.70;99.90;;;;;;4857115;29;20398;-67
2023/06/27 04:27:59;;;;;;;12.38;5.45;;;16.80;99.90;;;;;;4858658;29;20045;-68
2023/06/27 04:30:25;;;;;;;10.88;5.47;;;16.80;99.90;;;;;;4858347;29;20705;-68
2023/06/27 04:32:50;;;;;;;12.65;5.60;;;16.90;99.90;;;;;;4858068;29;20053;-68
2023/06/27 04:35:19;;;;;;;11.32;5.45;;;16.90;99.90;;;;;;4858253;29;20061;-68
2023/06/27 04:37:48;;;;;;;14.63;6.10;;;16.90;99.90;;;;;;4857031;29;20070;-66
2023/06/27 04:40:14;;;;;;;8.05;5.15;;;16.90;99.90;;;;;;4858375;29;20109;-67
2023/06/27 04:42:40;;;;;;;10.07;6.00;;;16.90;99.90;;;;;;4858286;29;20132;-68
2023/06/27 04:45:06;;;;;;;13.80;5.80;;;17.00;99.90;;;;;;4858560;29;20148;-67
2023/06/27 04:47:35;;;;;;;7.53;5.15;;;17.00;99.90;;;;;;4857883;29;20054;-68
2023/06/27 04:50:02;;;;;;;10.25;5.63;;;17.20;99.90;;;;;;4865895;29;20481;-68
2023/06/27 04:52:27;;;;;;;12.95;5.68;;;17.30;99.90;;;;;;4876078;29;20124;-68
2023/06/27 04:54:53;;;;;;;13.05;6.00;;;17.30;99.90;;;;;;4858168;29;20046;-68
2023/06/27 04:57:19;;;;;;;12.68;5.38;;;17.40;99.90;;;;;;4858399;29;20052;-66
2023/06/27 04:59:44;;;;;;;11.10;5.13;;;17.50;99.90;;;;;;4858730;29;20053;-67
2023/06/27 05:02:10;;;;;;;11.98;5.55;;;17.60;99.90;;;;;;4856557;29;20077;-68
2023/06/27 05:04:36;;;;;;;9.63;6.68;;;17.80;99.90;;;;;;4858664;29;20053;-77
2023/06/27 05:07:04;;;;;;;9.50;5.82;;;17.90;99.90;;;;;;4858241;29;20103;-75
2023/06/27 05:09:30;;;;;;;10.93;5.88;;;18.00;99.90;;;;;;4858076;29;20505;-75
2023/06/27 05:11:56;;;;;;;10.38;5.80;;;18.10;99.90;;;;;;4858258;29;20468;-76
2023/06/27 05:14:23;;;;;;;12.27;5.70;;;18.20;99.90;;;;;;4858152;29;20049;-75
2023/06/27 05:16:49;;;;;;;12.77;6.05;;;18.40;99.90;;;;;;4856559;29;20120;-74
2023/06/27 05:19:14;;;;;;;18.45;6.05;;;18.40;99.90;;;;;;4858034;29;20091;-75
2023/06/27 05:21:40;;;;;;;10.60;5.80;;;18.40;99.90;;;;;;4841385;29;20061;-75
2023/06/27 05:24:06;;;;;;;12.75;5.68;;;18.40;99.90;;;;;;4859843;29;20133;-75
2023/06/27 05:26:33;;;;;;;8.65;5.53;;;18.70;99.90;;;;;;4861335;29;20061;-75
2023/06/27 05:28:59;;;;;;;13.80;5.82;;;18.70;99.90;;;;;;4861273;29;20555;-75
2023/06/27 05:31:29;;;;;;;9.63;5.32;;;18.80;99.90;;;;;;4861210;29;20053;-75
2023/06/27 05:33:55;;;;;;;11.13;5.38;;;18.90;99.90;;;;;;4861634;29;20060;-76
2023/06/27 05:36:21;;;;;;;10.93;5.68;;;19.00;99.90;;;;;;4860138;29;20045;-76
2023/06/27 05:38:47;;;;;;;13.95;5.07;;;19.00;99.90;;;;;;4859956;29;20054;-76
2023/06/27 05:41:17;;;;;;;11.35;4.57;;;19.20;99.90;;;;;;4861514;29;20413;-76
2023/06/27 05:43:44;;;;;;;14.82;5.07;;;19.20;99.90;;;;;;4861526;29;20057;-76
2023/06/27 05:46:10;;;;;;;13.35;4.88;;;19.30;99.90;;;;;;4860472;29;20189;-75
2023/06/27 05:48:35;;;;;;;10.55;4.82;;;19.50;99.90;;;;;;4860720;29;20406;-75
2023/06/27 05:51:01;;;;;;;14.43;5.55;;;19.60;99.90;;;;;;4861070;29;20053;-75
2023/06/27 05:53:27;;;;;;;12.00;4.72;;;19.70;99.90;;;;;;4861124;29;20133;-75
2023/06/27 05:55:52;;;;;;;15.45;4.80;;;19.70;99.90;;;;;;4859871;29;20053;-75
2023/06/27 05:58:18;;;;;;;6.03;3.65;;;19.90;99.90;;;;;;4860935;29;20063;-75
2023/06/27 06:00:44;;;;;;;5.88;3.75;;;19.90;99.90;;;;;;4869813;29;20048;-78
2023/06/27 06:03:09;;;;;;;12.65;4.00;;;20.10;99.90;;;;;;4878009;29;20116;-77
2023/06/27 06:05:35;;;;;;;5.15;3.80;;;20.20;99.90;;;;;;4865437;29;20056;-76
2023/06/27 06:08:00;;;;;;;9.60;3.30;;;20.20;99.90;;;;;;4873292;29;20136;-77
2023/06/27 06:10:26;;;;;;;6.85;3.20;;;20.20;99.90;;;;;;4884410;29;20125;-77
2023/06/27 06:12:52;;;;;;;4.68;3.20;;;20.40;99.90;;;;;;4882589;29;20063;-76
2023/06/27 06:15:17;;;;;;;8.55;2.95;;;20.40;99.90;;;;;;4881118;29;20053;-77
2023/06/27 06:17:43;;;;;;;10.55;2.80;;;20.50;99.90;;;;;;4898841;29;20415;-80
2023/06/27 06:20:09;;;;;;;9.13;2.75;;;20.60;99.90;;;;;;4866897;29;20083;-68
2023/06/27 06:22:35;;;;;;;9.80;2.30;;;20.60;99.90;;;;;;4880673;29;20062;-68
2023/06/27 06:25:02;;;;;;;6.30;2.78;;;20.80;99.90;;;;;;4897659;29;20127;-67
2023/06/27 06:27:28;;;;;;;5.63;2.10;;;20.90;99.90;;;;;;4897357;29;20049;-68
2023/06/27 06:29:54;;;;;;;6.68;2.22;;;21.20;99.90;;;;;;4897150;29;20136;-68
2023/06/27 06:32:20;;;;;;;5.93;2.00;;;21.30;99.90;;;;;;4897525;29;20056;-67
2023/06/27 06:34:45;;;;;;;4.63;1.95;;;21.20;99.90;;;;;;4897168;29;20063;-67
2023/06/27 06:37:11;;;;;;;6.45;1.88;;;21.30;99.90;;;;;;4880246;29;20120;-68
2023/06/27 06:39:37;;;;;;;3.85;1.80;;;21.50;99.90;;;;;;4897599;29;20067;-72
2023/06/27 06:42:03;;;;;;;6.05;1.90;;;21.50;99.90;;;;;;4897041;29;20536;-71
2023/06/27 06:44:28;;;;;;;4.30;1.98;;;21.50;99.90;;;;;;4896925;29;20052;-73
2023/06/27 06:46:54;;;;;;;5.75;1.73;;;21.50;99.90;;;;;;4897099;29;20092;-72
2023/06/27 06:49:20;;;;;;;11.88;2.33;;;21.50;99.90;;;;;;4896917;29;20057;-72
2023/06/27 06:51:46;;;;;;;4.10;1.70;;;21.50;99.90;;;;;;4897278;29;20048;-73
2023/06/27 06:54:12;;;;;;;6.22;1.90;;;21.70;99.90;;;;;;4880239;29;20071;-72
2023/06/27 06:56:37;;;;;;;5.75;1.42;;;22.00;99.90;;;;;;4896990;29;20048;-74
2023/06/27 06:59:06;;;;;;;8.48;1.90;;;22.10;99.90;;;;;;4896985;29;20052;-73
2023/06/27 07:01:31;;;;;;;3.45;1.08;;;22.00;99.90;;;;;;4897597;29;20886;-73
2023/06/27 07:03:57;;;;;;;5.18;1.25;;;22.10;99.90;;;;;;4886715;29;20301;-74
2023/06/27 07:06:23;;;;;;;5.85;1.40;;;22.00;99.90;;;;;;4861481;29;20080;-72
2023/06/27 07:08:49;;;;;;;9.55;1.60;;;22.20;99.90;;;;;;4878203;29;20049;-73
2023/06/27 07:11:15;;;;;;;5.05;1.58;;;22.10;99.90;;;;;;4878161;29;20089;-72
2023/06/27 07:13:40;;;;;;;4.57;1.20;;;22.10;99.90;;;;;;4877487;29;20218;-72
2023/06/27 07:16:06;;;;;;;2.53;0.98;;;22.20;99.90;;;;;;4878164;29;20053;-72
2023/06/27 07:18:32;;;;;;;2.15;1.00;;;22.20;99.90;;;;;;4878985;29;20052;-80
2023/06/27 07:20:57;;;;;;;4.90;1.30;;;22.10;99.90;;;;;;4878154;29;20056;-78
2023/06/27 07:23:23;;;;;;;3.55;1.10;;;22.20;99.90;;;;;;4862384;29;20049;-78
2023/06/27 07:25:49;;;;;;;5.10;0.90;;;22.10;99.90;;;;;;4877620;29;20049;-78
2023/06/27 07:28:16;;;;;;;5.15;1.00;;;22.00;99.90;;;;;;4861763;29;20057;-78
2023/06/27 07:30:45;;;;;;;5.70;1.25;;;22.10;99.80;;;;;;4861798;29;20055;-78
2023/06/27 07:33:14;;;;;;;2.83;1.08;;;22.20;99.80;;;;;;4861689;29;20064;-77
2023/06/27 07:35:40;;;;;;;3.67;1.05;;;22.30;99.50;;;;;;4879122;29;20059;-65
2023/06/27 07:38:05;;;;;;;4.03;1.30;;;22.40;99.20;;;;;;4877804;29;20053;-65
2023/06/27 07:40:31;;;;;;;8.48;1.00;;;22.40;99.20;;;;;;4877733;29;20049;-65
2023/06/27 07:42:57;;;;;;;5.28;1.00;;;22.60;99.00;;;;;;4877150;29;20053;-66
2023/06/27 07:45:22;;;;;;;3.03;1.40;;;22.70;98.60;;;;;;4877287;29;20053;-65
2023/06/27 07:47:48;;;;;;;3.78;1.17;;;22.90;98.30;;;;;;4860479;29;20057;-65
2023/06/27 07:50:14;;;;;;;4.80;1.15;;;23.10;98.50;;;;;;4877491;29;20160;-65
2023/06/27 07:52:39;;;;;;;6.95;0.90;;;23.10;98.30;;;;;;4877192;29;20064;-65
2023/06/27 07:55:06;;;;;;;2.85;1.20;;;23.10;98.40;;;;;;4877499;29;20056;-65
2023/06/27 07:57:32;;;;;;;3.92;0.95;;;23.10;98.20;;;;;;4877181;29;20068;-65
2023/06/27 07:59:57;;;;;;;4.40;1.20;;;23.00;98.40;;;;;;4877271;29;20045;-66
2023/06/27 08:02:23;;;;;;;5.97;1.02;;;23.10;98.40;;;;;;4877502;29;20104;-65
2023/06/27 08:04:49;;;;;;;3.92;1.00;;;22.90;98.20;;;;;;4877330;29;20049;-65
2023/06/27 08:07:14;;;;;;;1.60;0.98;;;22.70;98.40;;;;;;4877303;29;20559;-65
2023/06/27 08:09:40;;;;;;;1.02;0.73;;;22.70;98.30;;;;;;4860079;29;20056;-66
2023/06/27 08:12:06;;;;;;;2.45;0.82;;;22.50;98.00;;;;;;4882791;29;20051;-66
2023/06/27 08:14:32;;;;;;;3.05;0.95;;;22.50;97.60;;;;;;4896084;29;20053;-81
2023/06/27 08:16:59;;;;;;;5.32;1.10;;;22.30;97.70;;;;;;4879722;29;20056;-78
2023/06/27 08:19:27;;;;;;;4.88;0.93;;;22.30;97.50;;;;;;4896664;29;20052;-77
2023/06/27 08:21:52;;;;;;;4.20;0.95;;;22.30;98.00;;;;;;4896371;29;20056;-78
2023/06/27 08:24:18;;;;;;;3.05;0.90;;;22.20;97.80;;;;;;4896373;29;20530;-78
2023/06/27 08:26:46;;;;;;;2.88;0.75;;;22.20;98.20;;;;;;4896618;29;20053;-79
2023/06/27 08:29:12;;;;;;;5.25;0.98;;;22.20;98.20;;;;;;4896780;29;20052;-80
2023/06/27 08:31:38;;;;;;;1.50;0.77;;;22.10;98.30;;;;;;4897081;29;20063;-79
2023/06/27 08:34:03;;;;;;;1.52;0.75;;;22.10;98.60;;;;;;4879857;29;20464;-80
2023/06/27 08:36:29;;;;;;;3.58;0.82;;;22.20;98.50;;;;;;4896867;29;20045;-82
2023/06/27 08:38:55;;;;;;;3.45;0.80;;;22.40;98.30;;;;;;4880234;29;20063;-83
2023/06/27 08:41:20;;;;;;;3.75;0.90;;;22.50;98.20;;;;;;4896834;29;20044;-77
2023/06/27 08:43:47;;;;;;;2.97;1.23;;;22.70;97.80;;;;;;4897367;29;20064;-81
2023/06/27 08:46:14;;;;;;;3.25;0.88;;;22.90;97.30;;;;;;4888707;29;20052;-74
2023/06/27 08:48:43;;;;;;;7.28;0.90;;;22.90;97.10;;;;;;4869934;29;20050;-76
2023/06/27 08:51:12;;;;;;;2.05;0.73;;;23.10;96.40;;;;;;4863304;29;20477;-74
2023/06/27 08:53:41;;;;;;;3.78;1.00;;;23.10;96.00;;;;;;4875748;29;20060;-76
2023/06/27 08:56:10;;;;;;;4.78;1.00;;;23.00;95.50;;;;;;4876557;29;20060;-68
2023/06/27 08:58:46;;;;;;;1.92;0.65;;;22.90;95.70;;;;;;4845755;29;20113;-69
2023/06/27 09:01:12;;;;;;;2.40;0.80;;;22.80;94.60;;;;;;4861826;29;20065;-69
2023/06/27 09:03:38;;;;;;;3.03;0.90;;;22.50;95.30;;;;;;4861296;29;20057;-69
2023/06/27 09:06:05;;;;;;;5.07;0.90;;;22.30;94.60;;;;;;4861864;29;20044;-69
2023/06/27 09:08:32;;;;;;;4.00;0.85;;;22.30;95.00;;;;;;4861376;29;20540;-68
2023/06/27 09:10:59;;;;;;;2.50;1.00;;;22.30;95.90;;;;;;4861831;29;20713;-68
2023/06/27 09:13:25;;;;;;;5.10;0.95;;;22.30;95.40;;;;;;4861590;29;20136;-74
2023/06/27 09:15:51;;;;;;;5.13;1.15;;;22.30;95.10;;;;;;4844929;29;20060;-73
2023/06/27 09:18:17;;;;;;;3.55;1.00;;;22.20;95.30;;;;;;4861471;29;20061;-73
2023/06/27 09:20:44;;;;;;;3.47;0.70;;;22.10;94.90;;;;;;4861420;29;20651;-72
2023/06/27 09:23:11;;;;;;;2.17;0.90;;;22.00;95.20;;;;;;4861437;29;20095;-73
2023/06/27 09:25:36;;;;;;;3.72;0.90;;;22.00;95.50;;;;;;4861458;29;20790;-73
2023/06/27 09:28:16;;;;;;;2.38;0.80;;;22.00;94.70;;;;;;4844614;29;20163;-73
2023/06/27 09:30:55;;;;;;;2.75;0.82;;;22.10;94.80;;;;;;4860574;29;20054;-73
2023/06/27 09:33:21;;;;;;;4.72;0.75;;;22.20;95.10;;;;;;4861499;29;20081;-72
2023/06/27 09:35:47;;;;;;;2.20;1.10;;;22.10;95.70;;;;;;4861293;29;20148;-72
2023/06/27 09:38:13;;;;;;;4.50;0.57;;;22.10;95.50;;;;;;4860942;29;20064;-72
2023/06/27 09:40:38;;;;;;;4.43;0.82;;;22.10;95.20;;;;;;4861339;29;20045;-73
2023/06/27 09:43:06;;;;;;;3.88;0.93;;;22.30;95.70;;;;;;4861164;29;20540;-73
2023/06/27 09:45:32;;;;;;;4.63;1.10;;;22.20;95.00;;;;;;4861087;29;20049;-72
2023/06/27 09:47:58;;;;;;;4.85;0.70;;;22.20;94.70;;;;;;4859544;29;20052;-72
2023/06/27 09:50:33;;;;;;;4.20;1.00;;;22.20;94.40;;;;;;4844430;29;20638;-69
2023/06/27 09:53:00;;;;;;;3.15;0.90;;;22.10;94.50;;;;;;4859603;29;20182;-70
2023/06/27 09:55:26;;;;;;;5.97;1.10;;;22.20;95.20;;;;;;4861206;29;20141;-69
2023/06/27 09:57:52;;;;;;;2.42;0.80;;;22.20;95.30;;;;;;4859933;29;20057;-69
2023/06/27 10:00:20;;;;;;;5.75;1.00;;;22.30;95.50;;;;;;4844425;29;20401;-68
2023/06/27 10:02:48;;;;;;;4.60;0.95;;;22.30;95.40;;;;;;4844144;29;20061;-69
2023/06/27 10:05:15;;;;;;;3.00;1.17;;;22.20;95.50;;;;;;4859454;29;20065;-69
2023/06/27 10:07:42;;;;;;;2.85;0.80;;;22.30;95.50;;;;;;4860899;29;20133;-73
2023/06/27 10:10:08;;;;;;;6.15;0.93;;;22.80;95.60;;;;;;4843256;29;20062;-65
2023/06/27 10:12:34;;;;;;;2.95;0.73;;;23.10;95.00;;;;;;4860404;29;20102;-66
2023/06/27 10:15:00;;;;;;;2.78;0.82;;;23.10;94.90;;;;;;4860436;29;20081;-66
2023/06/27 10:17:28;;;;;;;2.15;0.90;;;23.20;95.00;;;;;;4860461;29;20118;-67
2023/06/27 10:19:54;;;;;;;8.15;1.00;;;23.10;95.10;;;;;;4843869;29;20136;-66
2023/06/27 10:22:21;;;;;;;2.72;0.93;;;23.40;95.00;;;;;;4860234;29;20054;-67
2023/06/27 10:24:51;;;;;;;5.25;0.93;;;23.30;94.70;;;;;;4844326;29;20073;-65
2023/06/27 10:27:21;;;;;;;4.97;0.80;;;23.50;94.40;;;;;;4860856;29;20139;-71
2023/06/27 10:29:47;;;;;;;2.53;0.80;;;23.60;93.80;;;;;;4843695;29;20069;-72
2023/06/27 10:32:18;;;;;;;3.95;1.45;;;23.40;94.70;;;;;;4860268;29;20123;-72
2023/06/27 10:34:44;;;;;;;3.65;0.85;;;23.50;94.60;;;;;;4843489;29;20061;-72
2023/06/27 10:37:24;;;;;;;4.40;1.20;;;23.50;94.90;;;;;;4860013;29;20053;-71
2023/06/27 10:39:57;;;;;;;2.08;0.75;;;23.60;94.80;;;;;;4843375;29;20133;-70
2023/06/27 10:42:23;;;;;;;6.28;1.10;;;23.70;95.00;;;;;;4860180;29;20056;-72
2023/06/27 10:45:07;;;;;;;5.90;0.90;;;23.80;95.00;;;;;;4860140;29;20045;-71
2023/06/27 10:47:34;;;;;;;5.88;0.88;;;24.00;94.70;;;;;;4859898;29;20053;-65
2023/06/27 10:50:09;;;;;;;3.38;0.90;;;23.90;95.10;;;;;;4859663;29;20064;-63
2023/06/27 10:52:36;;;;;;;3.88;0.80;;;23.80;94.70;;;;;;4858504;29;20057;-65
2023/06/27 10:55:14;;;;;;;6.43;1.10;;;23.80;94.90;;;;;;4859760;29;20057;-65
2023/06/27 10:57:42;;;;;;;7.40;1.02;;;24.10;94.50;;;;;;4861579;29;20045;-65
2023/06/27 11:00:15;;;;;;;6.78;1.15;;;23.90;95.00;;;;;;4859720;29;20061;-64
2023/06/27 11:02:47;;;;;;;1.85;0.70;;;23.90;94.50;;;;;;4859605;29;20417;-65
2023/06/27 11:05:17;;;;;;;5.05;0.95;;;23.80;94.90;;;;;;4860276;29;20050;-64
2023/06/27 11:07:58;;;;;;;3.88;1.02;;;24.10;94.70;;;;;;4859661;29;20099;-70
2023/06/27 11:10:29;;;;;;;6.25;1.30;;;24.10;94.50;;;;;;4859390;29;20109;-70
2023/06/27 11:13:14;;;;;;;6.55;0.82;;;24.10;94.70;;;;;;4859382;29;20050;-70
2023/06/27 11:15:44;;;;;;;3.47;0.60;;;24.10;93.90;;;;;;4859563;29;20405;-69
2023/06/27 11:18:15;;;;;;;2.17;0.70;;;24.20;94.20;;;;;;4859584;29;20088;-70
2023/06/27 11:20:41;;;;;;;4.22;0.70;;;24.50;94.60;;;;;;4858953;29;20053;-70
2023/06/27 11:23:07;;;;;;;6.70;0.73;;;24.50;94.60;;;;;;4858975;29;20129;-69
2023/06/27 11:25:44;;;;;;;2.35;0.80;;;24.50;94.30;;;;;;4859162;29;20110;-70
2023/06/27 11:28:15;;;;;;;4.10;1.05;;;24.50;93.80;;;;;;4859141;29;20060;-71
2023/06/27 11:30:41;;;;;;;1.25;0.63;;;24.40;93.90;;;;;;4859475;29;20053;-71
2023/06/27 11:33:07;;;;;;;4.72;0.75;;;24.10;94.10;;;;;;4859099;29;20059;-71
2023/06/27 11:35:34;;;;;;;6.18;0.82;;;24.10;94.00;;;;;;4859366;29;20050;-71
2023/06/27 11:38:00;;;;;;;3.53;0.75;;;24.10;93.90;;;;;;4842419;29;20073;-70
2023/06/27 11:40:27;;;;;;;4.70;1.00;;;23.80;94.30;;;;;;4859489;29;20064;-72
2023/06/27 11:43:22;;;;;;;4.65;0.90;;;23.70;94.70;;;;;;4859354;29;20052;-72
2023/06/27 11:45:50;;;;;;;3.55;0.90;;;23.90;94.20;;;;;;4830589;29;20411;-71
2023/06/27 11:48:16;;;;;;;3.35;0.70;;;23.80;94.90;;;;;;4859117;29;20057;-72
2023/06/27 11:51:03;;;;;;;8.40;0.85;;;23.60;95.00;;;;;;4859342;29;20401;-72
2023/06/27 11:53:29;;;;;;;4.50;0.90;;;23.80;95.10;;;;;;4859296;29;20053;-72
2023/06/27 11:55:55;;;;;;;5.47;1.25;;;23.70;94.90;;;;;;4858965;29;20384;-71
2023/06/27 11:58:32;;;;;;;4.75;0.70;;;23.60;95.00;;;;;;4858915;29;20110;-72
2023/06/27 12:01:01;;;;;;;2.85;0.63;;;23.70;94.60;;;;;;4859068;29;20465;-71
2023/06/27 12:03:33;;;;;;;4.28;1.00;;;23.40;94.90;;;;;;4858679;29;20108;-66
2023/06/27 12:05:58;;;;;;;2.40;0.80;;;23.50;94.90;;;;;;4842095;29;20117;-73
2023/06/27 12:08:32;;;;;;;3.72;0.80;;;23.40;94.80;;;;;;4858663;29;20053;-73
2023/06/27 12:11:01;;;;;;;2.33;0.80;;;23.50;94.70;;;;;;4841956;29;20061;-73
2023/06/27 12:13:35;;;;;;;3.70;0.65;;;23.50;95.30;;;;;;4841802;29;20057;-73
2023/06/27 12:16:02;;;;;;;7.30;0.80;;;23.60;94.80;;;;;;4842089;29;20057;-73
2023/06/27 12:18:28;;;;;;;5.10;0.77;;;23.60;95.30;;;;;;4858363;29;20094;-73
2023/06/27 12:20:55;;;;;;;2.47;1.00;;;23.70;95.10;;;;;;4841853;29;20049;-73
2023/06/27 12:23:21;;;;;;;3.08;1.00;;;23.60;95.30;;;;;;4858770;29;20054;-73
2023/06/27 12:25:47;;;;;;;3.38;0.98;;;23.80;95.30;;;;;;4858242;29;20061;-66
2023/06/27 12:28:13;;;;;;;9.80;1.00;;;23.70;95.40;;;;;;4858155;29;20057;-66
2023/06/27 12:30:40;;;;;;;5.90;1.08;;;23.80;95.40;;;;;;4858244;29;20088;-66
2023/06/27 12:33:06;;;;;;;5.18;0.80;;;24.00;94.90;;;;;;4857505;29;20060;-66
2023/06/27 12:35:32;;;;;;;6.00;0.98;;;23.80;95.10;;;;;;4858387;29;20053;-66
2023/06/27 12:37:59;;;;;;;10.20;0.73;;;23.90;95.20;;;;;;4858409;29;20440;-66
2023/06/27 12:40:25;;;;;;;4.82;1.10;;;24.00;94.70;;;;;;4869261;29;20108;-72
2023/06/27 12:42:52;;;;;;;5.55;1.17;;;24.10;94.80;;;;;;4840947;29;20517;-73
2023/06/27 12:45:19;;;;;;;8.55;1.20;;;24.30;94.40;;;;;;4861923;29;20056;-72